Time;durP1;ratioP1;P1;durP2;ratioP2;P2;SDS_P1;SDS_P2;PMS_P1;PMS_P2;Temp;Humidity;BMP_temperature;BMP_pressure;BME280_temperature;BME280_humidity;BME280_pressure;Samples;Min_cycle;Max_cycle;Signal;HPM_P1;HPM_P2
2023/02/05 00:01:08;;;;;;;;;;;6.60;99.10;;;;;;4989771;28;19909;-63
2023/02/05 00:03:35;;;;;;;;;;;6.60;99.20;;;;;;4998416;28;19917;-70
2023/02/05 00:06:01;;;;;;;;;;;6.50;99.30;;;;;;4988956;28;19976;-61
2023/02/05 00:08:29;;;;;;;;;;;6.50;99.30;;;;;;4981843;28;21748;-62
2023/02/05 00:10:54;;;;;;;;;;;6.50;99.10;;;;;;4980502;28;19996;-66
2023/02/05 00:13:20;;;;;;;;;;;6.50;99.10;;;;;;4980768;28;20395;-66
2023/02/05 00:15:45;;;;;;;;;;;6.50;99.10;;;;;;4983282;28;19914;-65
2023/02/05 00:18:11;;;;;;;;;;;6.50;99.30;;;;;;4984075;28;19960;-64
2023/02/05 00:20:37;;;;;;;;;;;6.50;99.30;;;;;;4983247;28;19915;-64
2023/02/05 00:23:02;;;;;;;;;;;6.50;99.20;;;;;;4980714;28;19929;-60
2023/02/05 00:25:28;;;;;;;;;;;6.50;99.10;;;;;;4982630;28;19914;-64
2023/02/05 00:27:54;;;;;;;;;;;6.40;99.10;;;;;;4985639;28;19956;-67
2023/02/05 00:30:20;;;;;;;;;;;6.40;99.20;;;;;;4985546;28;20433;-64
2023/02/05 00:32:46;;;;;;;;;;;6.50;99.20;;;;;;4984238;28;19918;-64
2023/02/05 00:35:11;;;;;;;;;;;6.40;99.30;;;;;;4983176;28;19918;-65
2023/02/05 00:37:37;;;;;;;;;;;6.50;99.10;;;;;;4980150;28;19914;-63
2023/02/05 00:40:03;;;;;;;;;;;6.50;99.30;;;;;;4985542;28;19914;-64
2023/02/05 00:42:29;;;;;;;;;;;6.50;99.20;;;;;;4981180;28;19922;-64
2023/02/05 00:44:54;;;;;;;;;;;6.50;99.10;;;;;;4983512;28;20365;-70
2023/02/05 00:47:20;;;;;;;;;;;6.50;99.20;;;;;;4998111;28;19922;-66
2023/02/05 00:49:46;;;;;;;;;;;6.40;99.10;;;;;;4993890;28;19914;-64
2023/02/05 00:52:12;;;;;;;;;;;6.20;99.30;;;;;;4991563;28;19956;-64
2023/02/05 00:54:37;;;;;;;;;;;6.20;99.40;;;;;;4992324;28;19916;-64
2023/02/05 00:57:03;;;;;;;;;;;6.10;99.60;;;;;;4992190;28;19949;-65
2023/02/05 00:59:29;;;;;;;;;;;6.10;99.60;;;;;;4991260;28;20388;-65
2023/02/05 01:01:54;;;;;;;;;;;6.00;99.80;;;;;;4994563;28;19910;-64
2023/02/05 01:04:20;;;;;;;;;;;6.10;99.90;;;;;;4992065;28;19939;-63
2023/02/05 01:06:46;;;;;;;;;;;6.10;99.80;;;;;;4992881;28;19996;-63
2023/02/05 01:09:11;;;;;;;;;;;6.00;99.80;;;;;;4990998;28;19980;-63
2023/02/05 01:11:37;;;;;;;;;;;6.00;99.90;;;;;;4991850;28;19945;-66
2023/02/05 01:14:03;;;;;;;;;;;6.00;99.80;;;;;;4992860;28;19914;-63
2023/02/05 01:16:29;;;;;;;;;;;6.00;99.60;;;;;;4991813;28;19932;-68
2023/02/05 01:18:55;;;;;;;;;;;6.00;99.60;;;;;;4981293;28;20337;-64
2023/02/05 01:21:23;;;;;;;;;;;5.90;99.90;;;;;;4983362;28;19914;-66
2023/02/05 01:23:49;;;;;;;;;;;5.90;99.90;;;;;;4982850;28;19924;-68
2023/02/05 01:26:15;;;;;;;;;;;6.00;99.90;;;;;;4979636;28;19960;-67
2023/02/05 01:28:41;;;;;;;;;;;6.00;99.70;;;;;;4983946;28;19969;-68
2023/02/05 01:31:07;;;;;;;;;;;6.00;99.90;;;;;;4982071;28;19939;-66
2023/02/05 01:33:34;;;;;;;;;;;5.90;99.90;;;;;;4984607;28;19964;-65
2023/02/05 01:35:59;;;;;;;;;;;6.00;99.80;;;;;;4978030;28;19914;-63
2023/02/05 01:38:25;;;;;;;;;;;6.00;99.90;;;;;;4984485;28;19933;-65
2023/02/05 01:40:51;;;;;;;;;;;6.00;99.90;;;;;;4994899;28;19917;-67
2023/02/05 01:43:17;;;;;;;;;;;5.90;99.90;;;;;;4982236;28;19957;-67
2023/02/05 01:45:56;;;;;;;;;;;5.90;99.90;;;;;;4987744;28;20009;-65
2023/02/05 01:48:26;;;;;;;;;;;5.80;99.90;;;;;;4980821;28;20005;-61
2023/02/05 01:50:54;;;;;;;;;;;5.70;99.90;;;;;;4979979;28;20398;-67
2023/02/05 01:53:28;;;;;;;;;;;5.70;99.90;;;;;;4989168;28;19920;-67
2023/02/05 01:56:21;;;;;;;;;;;5.80;99.90;;;;;;4987542;28;19918;-64
2023/02/05 01:58:58;;;;;;;;;;;5.80;99.80;;;;;;4990775;28;19930;-67
2023/02/05 02:01:25;;;;;;;;;;;5.80;99.80;;;;;;4990230;28;19921;-68
2023/02/05 02:03:53;;;;;;;;;;;5.80;99.90;;;;;;4979117;28;20331;-62
2023/02/05 02:06:19;;;;;;;;;;;5.80;99.90;;;;;;4985008;28;19930;-63
2023/02/05 02:08:44;;;;;;;;;;;5.90;99.80;;;;;;4981771;28;19990;-66
2023/02/05 02:11:12;;;;;;;;;;;5.90;99.80;;;;;;4982088;28;19933;-68
2023/02/05 02:13:38;;;;;;;;;;;5.80;99.70;;;;;;4991258;28;20505;-67
2023/02/05 02:16:05;;;;;;;;;;;5.80;99.90;;;;;;4986885;28;19924;-67
2023/02/05 02:18:32;;;;;;;;;;;5.80;99.90;;;;;;4985653;28;19950;-67
2023/02/05 02:21:06;;;;;;;;;;;5.80;99.70;;;;;;4984757;28;19918;-68
2023/02/05 02:23:38;;;;;;;;;;;5.70;99.90;;;;;;4988210;28;19920;-67
2023/02/05 02:26:15;;;;;;;;;;;5.70;99.90;;;;;;4985084;28;19920;-63
2023/02/05 02:28:47;;;;;;;;;;;5.70;99.90;;;;;;4977858;28;19917;-67
2023/02/05 02:31:15;;;;;;;;;;;5.70;99.90;;;;;;4981373;28;19942;-62
2023/02/05 02:33:51;;;;;;;;;;;5.70;99.90;;;;;;4981772;28;19926;-65
2023/02/05 02:36:21;;;;;;;;;;;5.70;99.90;;;;;;4979102;28;19923;-64
2023/02/05 02:38:47;;;;;;;;;;;5.80;99.90;;;;;;4986802;28;19925;-63
2023/02/05 02:41:16;;;;;;;;;;;5.80;99.90;;;;;;4986799;28;19914;-64
2023/02/05 02:43:50;;;;;;;;;;;5.80;99.90;;;;;;4982097;28;19949;-64
2023/02/05 02:46:20;;;;;;;;;;;5.80;99.90;;;;;;4982293;28;20173;-66
2023/02/05 02:48:46;;;;;;;;;;;5.90;99.90;;;;;;4974641;28;20000;-65
2023/02/05 02:51:15;;;;;;;;;;;5.90;99.90;;;;;;4990296;28;20004;-66
2023/02/05 02:53:44;;;;;;;;;;;5.90;99.90;;;;;;4987962;28;19910;-63
2023/02/05 02:56:11;;;;;;;;;;;5.90;99.70;;;;;;4992955;28;19978;-63
2023/02/05 02:58:57;;;;;;;;;;;5.90;99.80;;;;;;4991178;28;19961;-66
2023/02/05 03:01:24;;;;;;;;;;;5.90;99.80;;;;;;4990169;28;19917;-65
2023/02/05 03:03:56;;;;;;;;;;;5.90;99.80;;;;;;4989939;28;19917;-63
2023/02/05 03:06:22;;;;;;;;;;;5.90;99.70;;;;;;4969193;28;19910;-61
2023/02/05 03:08:56;;;;;;;;;;;5.90;99.80;;;;;;4990980;28;20391;-65
2023/02/05 03:11:22;;;;;;;;;;;5.90;99.90;;;;;;4990014;28;19910;-65
2023/02/05 03:13:48;;;;;;;;;;;5.80;99.90;;;;;;4988823;28;19917;-64
2023/02/05 03:16:17;;;;;;;;;;;5.80;99.70;;;;;;4964333;28;19925;-67
2023/02/05 03:18:42;;;;;;;;;;;5.80;99.70;;;;;;4979728;28;19922;-64
2023/02/05 03:21:11;;;;;;;;;;;5.70;99.80;;;;;;4976338;28;19914;-63
2023/02/05 03:23:37;;;;;;;;;;;5.70;99.80;;;;;;4978853;28;19922;-65
2023/02/05 03:26:03;;;;;;;;;;;5.70;99.90;;;;;;4989932;28;20021;-65
2023/02/05 03:28:28;;;;;;;;;;;5.70;99.90;;;;;;4973683;28;19968;-65
2023/02/05 03:31:16;;;;;;;;;;;5.80;99.90;;;;;;4991770;28;19909;-63
2023/02/05 03:33:42;;;;;;;;;;;5.70;99.90;;;;;;4987410;28;19910;-63
2023/02/05 03:36:13;;;;;;;;;;;5.70;99.90;;;;;;4992748;28;19970;-63
2023/02/05 03:38:59;;;;;;;;;;;5.70;99.90;;;;;;4985159;28;20379;-64
2023/02/05 03:41:54;;;;;;;;;;;5.60;99.90;;;;;;4983851;28;19921;-65
2023/02/05 03:44:15;;;;;;;;;;;5.60;99.90;;;;;;4978358;28;20711;-67
2023/02/05 03:46:40;;;;;;;;;;;5.60;99.90;;;;;;4979450;28;20376;-66
2023/02/05 03:49:12;;;;;;;;;;;5.50;99.90;;;;;;4983384;28;19925;-67
2023/02/05 03:51:40;;;;;;;;;;;5.50;99.90;;;;;;4982604;28;20523;-65
2023/02/05 03:54:12;;;;;;;;;;;5.40;99.90;;;;;;4982164;28;19917;-62
2023/02/05 03:56:42;;;;;;;;;;;5.60;99.90;;;;;;4984024;28;19977;-63
2023/02/05 03:59:08;;;;;;;;;;;5.60;99.90;;;;;;4982396;28;19921;-64
2023/02/05 04:01:34;;;;;;;;;;;5.60;99.90;;;;;;4984978;28;19964;-62
2023/02/05 04:03:59;;;;;;;;;;;5.40;99.90;;;;;;4983723;28;19913;-64
2023/02/05 04:06:25;;;;;;;;;;;5.40;99.90;;;;;;4985156;28;20396;-65
2023/02/05 04:08:51;;;;;;;;;;;5.50;99.90;;;;;;4983617;28;19977;-64
2023/02/05 04:11:17;;;;;;;;;;;5.50;99.90;;;;;;4985037;28;19918;-64
2023/02/05 04:13:42;;;;;;;;;;;5.40;99.90;;;;;;4983339;28;20285;-62
2023/02/05 04:16:08;;;;;;;;;;;5.50;99.90;;;;;;4982910;28;19918;-60
2023/02/05 04:18:33;;;;;;;;;;;5.50;99.90;;;;;;4985535;28;19918;-66
2023/02/05 04:21:00;;;;;;;;;;;5.50;99.90;;;;;;4985620;28;19924;-62
2023/02/05 04:23:26;;;;;;;;;;;5.50;99.90;;;;;;4983705;28;19921;-66
2023/02/05 04:25:53;;;;;;;;;;;5.40;99.90;;;;;;4984203;28;20782;-65
2023/02/05 04:28:18;;;;;;;;;;;5.40;99.90;;;;;;4967970;28;19922;-63
2023/02/05 04:30:44;;;;;;;;;;;5.50;99.90;;;;;;4985960;28;19921;-66
2023/02/05 04:33:10;;;;;;;;;;;5.50;99.90;;;;;;4964133;28;20218;-67
2023/02/05 04:35:35;;;;;;;;;;;5.50;99.90;;;;;;4980780;28;19914;-66
2023/02/05 04:38:01;;;;;;;;;;;5.60;99.90;;;;;;4989617;28;20414;-62
2023/02/05 04:40:27;;;;;;;;;;;5.60;99.90;;;;;;4984813;28;19953;-62
2023/02/05 04:42:52;;;;;;;;;;;5.50;99.90;;;;;;4984521;28;19928;-64
2023/02/05 04:45:18;;;;;;;;;;;5.50;99.90;;;;;;4983169;28;19922;-69
2023/02/05 04:47:43;;;;;;;;;;;5.60;99.90;;;;;;4995495;28;19909;-66
2023/02/05 04:50:09;;;;;;;;;;;5.40;99.90;;;;;;4991591;28;19910;-61
2023/02/05 04:52:35;;;;;;;;;;;5.40;99.90;;;;;;4999613;28;19945;-61
2023/02/05 04:55:00;;;;;;;;;;;5.30;99.90;;;;;;4994324;28;19910;-63
2023/02/05 04:57:28;;;;;;;;;;;5.30;99.90;;;;;;4986897;28;20364;-63
2023/02/05 04:59:54;;;;;;;;;;;5.20;99.90;;;;;;4981340;28;19939;-59
2023/02/05 05:02:19;;;;;;;;;;;5.30;99.90;;;;;;4976761;28;19910;-65
2023/02/05 05:04:45;;;;;;;;;;;5.20;99.90;;;;;;4986782;28;19910;-65
2023/02/05 05:07:10;;;;;;;;;;;5.30;99.90;;;;;;4984417;28;20060;-64
2023/02/05 05:09:36;;;;;;;;;;;5.40;99.90;;;;;;4984542;28;19987;-66
2023/02/05 05:12:02;;;;;;;;;;;5.40;99.90;;;;;;4981716;28;19921;-64
2023/02/05 05:14:28;;;;;;;;;;;5.40;99.90;;;;;;4982311;28;19921;-64
2023/02/05 05:16:53;;;;;;;;;;;5.40;99.90;;;;;;4982979;28;19918;-66
2023/02/05 05:19:19;;;;;;;;;;;5.40;99.90;;;;;;4983429;28;19921;-64
2023/02/05 05:21:45;;;;;;;;;;;5.30;99.90;;;;;;4981935;28;20008;-64
2023/02/05 05:24:10;;;;;;;;;;;5.30;99.90;;;;;;4980651;28;19921;-61
2023/02/05 05:26:38;;;;;;;;;;;5.20;99.90;;;;;;4988973;28;19922;-64
2023/02/05 05:29:05;;;;;;;;;;;5.20;99.90;;;;;;4985074;28;19918;-64
2023/02/05 05:31:30;;;;;;;;;;;5.10;99.90;;;;;;4981891;28;20372;-66
2023/02/05 05:33:56;;;;;;;;;;;5.10;99.90;;;;;;4983480;28;19953;-65
2023/02/05 05:36:21;;;;;;;;;;;5.10;99.90;;;;;;4980666;28;19963;-63
2023/02/05 05:38:47;;;;;;;;;;;5.10;99.90;;;;;;4983210;28;19926;-64
2023/02/05 05:44:02;;;;;;;;;;;5.20;99.90;;;;;;4981714;28;19937;-64
2023/02/05 05:46:28;;;;;;;;;;;5.20;99.90;;;;;;4982422;28;19913;-65
2023/02/05 05:48:55;;;;;;;;;;;5.30;99.90;;;;;;4980662;28;19961;-65
2023/02/05 05:51:21;;;;;;;;;;;5.40;99.90;;;;;;4982653;28;19946;-64
2023/02/05 05:53:47;;;;;;;;;;;5.40;99.90;;;;;;4982230;28;19964;-64
2023/02/05 05:56:12;;;;;;;;;;;5.30;99.90;;;;;;4982645;28;19956;-64
2023/02/05 05:58:38;;;;;;;;;;;5.30;99.90;;;;;;4982206;28;19925;-63
2023/02/05 06:01:05;;;;;;;;;;;5.20;99.90;;;;;;4983087;28;19913;-64
2023/02/05 06:03:30;;;;;;;;;;;5.30;99.90;;;;;;4983913;28;19922;-63
2023/02/05 06:05:58;;;;;;;;;;;5.30;99.90;;;;;;4985558;28;19941;-66
2023/02/05 06:08:24;;;;;;;;;;;5.30;99.90;;;;;;4981448;28;19922;-65
2023/02/05 06:10:50;;;;;;;;;;;5.40;99.90;;;;;;4980287;28;19936;-65
2023/02/05 06:13:15;;;;;;;;;;;5.40;99.90;;;;;;4984730;28;19972;-66
2023/02/05 06:15:41;;;;;;;;;;;5.40;99.90;;;;;;4983231;28;20010;-65
2023/02/05 06:18:06;;;;;;;;;;;5.40;99.90;;;;;;4980922;28;19922;-64
2023/02/05 06:20:32;;;;;;;;;;;5.40;99.90;;;;;;4980269;28;20588;-66
2023/02/05 06:22:58;;;;;;;;;;;5.40;99.90;;;;;;4981411;28;22008;-64
2023/02/05 06:25:23;;;;;;;;;;;5.50;99.90;;;;;;4980691;28;19917;-63
2023/02/05 06:27:49;;;;;;;;;;;5.50;99.90;;;;;;4981600;28;19936;-64
2023/02/05 06:30:15;;;;;;;;;;;5.50;99.90;;;;;;4983833;28;19960;-65
2023/02/05 06:32:40;;;;;;;;;;;5.40;99.90;;;;;;4960634;28;20361;-62
2023/02/05 06:35:06;;;;;;;;;;;5.40;99.90;;;;;;4979580;28;19920;-64
2023/02/05 06:37:32;;;;;;;;;;;5.30;99.90;;;;;;4989292;28;19955;-66
2023/02/05 06:39:57;;;;;;;;;;;5.40;99.90;;;;;;4999020;28;19929;-67
2023/02/05 06:42:23;;;;;;;;;;;5.30;99.90;;;;;;4989525;28;19933;-65
2023/02/05 06:44:49;;;;;;;;;;;5.30;99.90;;;;;;4984052;28;19923;-66
2023/02/05 06:47:14;;;;;;;;;;;5.30;99.90;;;;;;4983352;28;19914;-63
2023/02/05 06:49:40;;;;;;;;;;;5.40;99.90;;;;;;4970364;28;19964;-66
2023/02/05 06:52:06;;;;;;;;;;;5.30;99.90;;;;;;4986165;28;19925;-66
2023/02/05 06:54:31;;;;;;;;;;;5.10;99.90;;;;;;4980909;28;19920;-66
2023/02/05 06:56:57;;;;;;;;;;;5.10;99.90;;;;;;4982563;28;19918;-67
2023/02/05 06:59:22;;;;;;;;;;;5.00;99.90;;;;;;4982727;28;19922;-66
2023/02/05 07:01:48;;;;;;;;;;;5.10;99.90;;;;;;4981066;28;20021;-64
2023/02/05 07:04:14;;;;;;;;;;;5.10;99.90;;;;;;4982731;28;19929;-65
2023/02/05 07:06:40;;;;;;;;;;;5.10;99.90;;;;;;4987783;28;22141;-64
2023/02/05 07:09:05;;;;;;;;;;;5.10;99.90;;;;;;4983010;28;19921;-63
2023/02/05 07:11:31;;;;;;;;;;;5.10;99.90;;;;;;4981907;28;19918;-64
2023/02/05 07:13:59;;;;;;;;;;;5.10;99.90;;;;;;4984155;28;19922;-66
2023/02/05 07:16:24;;;;;;;;;;;5.10;99.90;;;;;;4981800;28;19918;-65
2023/02/05 07:18:51;;;;;;;;;;;5.00;99.90;;;;;;4984002;28;19940;-66
2023/02/05 07:21:17;;;;;;;;;;;5.10;99.90;;;;;;4982621;28;19976;-64
2023/02/05 07:23:43;;;;;;;;;;;5.10;99.90;;;;;;4986471;28;20020;-65
2023/02/05 07:26:12;;;;;;;;;;;5.10;99.90;;;;;;4988566;28;20476;-65
2023/02/05 07:28:38;;;;;;;;;;;5.10;99.90;;;;;;4988998;28;19922;-66
2023/02/05 07:31:07;;;;;;;;;;;5.20;99.90;;;;;;4986682;28;20008;-65
2023/02/05 07:33:35;;;;;;;;;;;5.00;99.90;;;;;;4988456;28;20491;-66
2023/02/05 07:36:04;;;;;;;;;;;5.20;99.90;;;;;;4988011;28;19929;-66
2023/02/05 07:38:30;;;;;;;;;;;5.10;99.90;;;;;;4988979;28;20499;-66
2023/02/05 07:40:55;;;;;;;;;;;5.00;99.90;;;;;;4987094;28;19932;-63
2023/02/05 07:43:21;;;;;;;;;;;5.00;99.90;;;;;;4986373;28;19914;-65
2023/02/05 07:45:46;;;;;;;;;;;5.00;99.90;;;;;;4985420;28;20307;-64
2023/02/05 07:48:12;;;;;;;;;;;5.00;99.90;;;;;;4989292;28;19922;-67
2023/02/05 07:50:42;;;;;;;;;;;4.90;99.90;;;;;;4988681;28;19914;-66
2023/02/05 07:53:07;;;;;;;;;;;5.00;99.90;;;;;;4985131;28;20276;-66
2023/02/05 07:55:33;;;;;;;;;;;5.10;99.90;;;;;;4989383;28;19932;-66
2023/02/05 07:57:59;;;;;;;;;;;5.10;99.90;;;;;;4987048;28;19929;-65
2023/02/05 08:00:24;;;;;;;;;;;5.10;99.90;;;;;;4986657;28;19918;-64
2023/02/05 08:02:50;;;;;;;;;;;5.00;99.90;;;;;;4986713;28;19914;-64
2023/02/05 08:05:16;;;;;;;;;;;5.10;99.90;;;;;;4990267;28;19914;-65
2023/02/05 08:07:41;;;;;;;;;;;5.10;99.90;;;;;;4987263;28;20374;-66
2023/02/05 08:10:08;;;;;;;;;;;5.10;99.90;;;;;;4989156;28;20008;-67
2023/02/05 08:12:34;;;;;;;;;;;5.20;99.90;;;;;;4989264;28;20000;-65
2023/02/05 08:14:59;;;;;;;;;;;5.10;99.90;;;;;;4989169;28;19988;-67
2023/02/05 08:17:25;;;;;;;;;;;5.20;99.90;;;;;;4987587;28;19956;-67
2023/02/05 08:19:51;;;;;;;;;;;5.10;99.90;;;;;;4984640;28;19918;-66
2023/02/05 08:22:16;;;;;;;;;;;5.20;99.90;;;;;;4988898;28;19925;-66
2023/02/05 08:24:42;;;;;;;;;;;5.10;99.90;;;;;;4989116;28;20046;-65
2023/02/05 08:27:07;;;;;;;;;;;5.20;99.90;;;;;;4987212;28;20416;-65
2023/02/05 08:29:33;;;;;;;;;;;5.20;99.90;;;;;;4987658;28;19914;-66
2023/02/05 08:31:59;;;;;;;;;;;5.30;99.90;;;;;;4986285;28;19913;-66
2023/02/05 08:34:24;;;;;;;;;;;5.20;99.90;;;;;;4970363;28;20340;-66
2023/02/05 08:36:50;;;;;;;;;;;5.30;99.90;;;;;;4981074;28;19917;-65
2023/02/05 08:39:15;;;;;;;;;;;5.40;99.90;;;;;;4985607;28;19956;-65
2023/02/05 08:41:41;;;;;;;;;;;5.50;99.90;;;;;;4984041;28;19980;-64
2023/02/05 08:44:06;;;;;;;;;;;5.50;99.90;;;;;;4982913;28;19922;-65
2023/02/05 08:46:32;;;;;;;;;;;5.50;99.90;;;;;;4991052;28;19914;-66
2023/02/05 08:48:58;;;;;;;;;;;5.60;99.90;;;;;;4986302;28;20345;-64
2023/02/05 08:51:23;;;;;;;;;;;5.70;99.90;;;;;;4989030;28;19910;-64
2023/02/05 08:53:49;;;;;;;;;;;5.60;99.90;;;;;;4976888;28;20394;-63
2023/02/05 08:56:16;;;;;;;;;;;5.60;99.90;;;;;;4988825;28;19941;-65
2023/02/05 08:58:41;;;;;;;;;;;5.60;99.90;;;;;;4981414;28;19918;-65
2023/02/05 09:01:15;;;;;;;;;;;5.60;99.90;;;;;;4992168;28;19914;-63
2023/02/05 09:03:41;;;;;;;;;;;5.70;99.90;;;;;;4990229;28;20277;-65
2023/02/05 09:06:08;;;;;;;;;;;5.70;99.90;;;;;;5000555;28;19925;-66
2023/02/05 09:08:34;;;;;;;;;;;5.70;99.90;;;;;;4984276;28;19921;-64
2023/02/05 09:10:59;;;;;;;;;;;5.80;99.90;;;;;;4998701;28;20325;-66
2023/02/05 09:13:25;;;;;;;;;;;5.90;99.90;;;;;;4997871;28;19962;-68
2023/02/05 09:15:51;;;;;;;;;;;5.80;99.90;;;;;;4991394;28;19937;-67
2023/02/05 09:18:16;;;;;;;;;;;5.70;99.90;;;;;;4990719;28;19926;-67
2023/02/05 09:20:43;;;;;;;;;;;5.80;99.90;;;;;;4971802;28;20000;-66
2023/02/05 09:23:09;;;;;;;;;;;5.70;99.90;;;;;;4990098;28;19921;-67
2023/02/05 09:25:38;;;;;;;;;;;5.70;99.90;;;;;;4990464;28;19921;-67
2023/02/05 09:28:06;;;;;;;;;;;5.80;99.90;;;;;;4969969;28;19921;-67
2023/02/05 09:30:32;;;;;;;;;;;5.70;99.90;;;;;;4997739;28;19939;-67
2023/02/05 09:32:58;;;;;;;;;;;5.80;99.90;;;;;;4994615;28;19936;-67
2023/02/05 09:35:23;;;;;;;;;;;5.80;99.90;;;;;;4989247;28;19925;-67
2023/02/05 09:37:49;;;;;;;;;;;5.80;99.90;;;;;;5003083;28;20407;-66
2023/02/05 09:40:22;;;;;;;;;;;5.80;99.90;;;;;;4999249;28;20015;-67
2023/02/05 09:42:53;;;;;;;;;;;5.80;99.90;;;;;;4996913;28;20400;-68
2023/02/05 09:45:31;;;;;;;;;;;5.80;99.90;;;;;;4996720;28;19910;-67
2023/02/05 09:48:15;;;;;;;;;;;5.80;99.90;;;;;;4984497;28;19924;-65
2023/02/05 09:50:41;;;;;;;;;;;5.90;99.90;;;;;;4990735;28;19910;-66
2023/02/05 09:53:10;;;;;;;;;;;6.00;99.90;;;;;;4990443;28;19929;-66
2023/02/05 09:55:37;;;;;;;;;;;6.10;99.90;;;;;;4988095;28;20372;-73
2023/02/05 09:58:07;;;;;;;;;;;6.20;99.90;;;;;;4993771;28;19922;-66
2023/02/05 10:00:52;;;;;;;;;;;6.20;99.90;;;;;;4989839;28;19969;-66
2023/02/05 10:03:18;;;;;;;;;;;6.30;99.90;;;;;;4981494;28;20311;-70
2023/02/05 10:06:02;;;;;;;;;;;6.40;99.90;;;;;;4994768;28;19921;-68
2023/02/05 10:08:28;;;;;;;;;;;6.50;99.90;;;;;;4993358;28;19917;-68
2023/02/05 10:10:54;;;;;;;;;;;6.60;99.90;;;;;;4992253;28;19914;-66
2023/02/05 10:13:36;;;;;;;;;;;6.50;99.90;;;;;;4990389;28;19914;-67
2023/02/05 10:16:05;;;;;;;;;;;6.60;99.90;;;;;;4989261;28;19918;-67
2023/02/05 10:18:40;;;;;;;;;;;6.60;99.90;;;;;;5002059;28;19921;-67
2023/02/05 10:21:11;;;;;;;;;;;6.60;99.90;;;;;;5010139;28;20303;-67
2023/02/05 10:23:47;;;;;;;;;;;6.50;99.90;;;;;;4997690;28;19928;-69
2023/02/05 10:26:14;;;;;;;;;;;6.60;99.90;;;;;;4989786;28;20029;-66
2023/02/05 10:28:40;;;;;;;;;;;6.60;99.90;;;;;;4992583;28;20315;-67
2023/02/05 10:31:11;;;;;;;;;;;6.70;99.90;;;;;;4989383;28;19968;-67
2023/02/05 10:33:54;;;;;;;;;;;6.70;99.90;;;;;;4992620;28;20474;-67
2023/02/05 10:36:21;;;;;;;;;;;6.80;99.90;;;;;;4989173;28;20339;-67
2023/02/05 10:38:48;;;;;;;;;;;6.60;99.90;;;;;;4990869;28;20004;-67
2023/02/05 10:41:33;;;;;;;;;;;6.50;99.90;;;;;;4990833;28;20015;-67
2023/02/05 10:44:10;;;;;;;;;;;6.50;99.90;;;;;;4987776;28;19913;-67
2023/02/05 10:46:36;;;;;;;;;;;6.60;99.90;;;;;;4987139;28;19913;-67
2023/02/05 10:49:14;;;;;;;;;;;6.70;99.90;;;;;;4991200;28;19921;-66
2023/02/05 11:06:55;;;;;;;;;;;6.60;99.90;;;;;;4992282;28;20381;-66
2023/02/05 11:09:24;;;;;;;;;;;6.60;99.90;;;;;;4988873;28;20064;-67
2023/02/05 11:11:50;;;;;;;;;;;6.60;99.90;;;;;;4989331;28;19910;-66
2023/02/05 11:14:20;;;;;;;;;;;6.70;99.90;;;;;;4990542;28;19997;-65
2023/02/05 11:16:46;;;;;;;;;;;6.70;99.90;;;;;;4973903;28;20295;-66
2023/02/05 11:19:20;;;;;;;;;;;6.80;99.90;;;;;;4996772;28;19926;-67
2023/02/05 11:21:46;;;;;;;;;;;6.80;99.90;;;;;;4997272;28;19913;-67
2023/02/05 11:24:21;;;;;;;;;;;6.70;99.90;;;;;;4993773;28;20012;-67
2023/02/05 11:26:48;;;;;;;;;;;6.90;99.90;;;;;;4998543;28;19914;-67
2023/02/05 11:38:30;;;;;;;;;;;6.90;99.90;;;;;;4992455;28;19960;-67
2023/02/05 11:41:03;;;;;;;;;;;7.00;99.90;;;;;;4997261;28;19914;-68
2023/02/05 11:43:35;;;;;;;;;;;7.20;99.90;;;;;;4987370;28;19914;-67
2023/02/05 11:46:04;;;;;;;;;;;7.40;99.90;;;;;;4989182;28;20045;-67
2023/02/05 11:48:32;;;;;;;;;;;7.40;99.90;;;;;;4974389;28;19921;-66
2023/02/05 11:50:59;;;;;;;;;;;7.50;99.90;;;;;;4996429;28;19910;-67
2023/02/05 11:53:27;;;;;;;;;;;7.50;99.90;;;;;;4973668;28;19916;-67
2023/02/05 11:59:00;;;;;;;;;;;7.50;99.90;;;;;;4994122;28;20311;-66
2023/02/05 12:01:31;;;;;;;;;;;7.50;99.90;;;;;;4991767;28;19914;-66
2023/02/05 12:03:58;;;;;;;;;;;7.60;99.90;;;;;;4990827;28;20422;-65
2023/02/05 12:06:28;;;;;;;;;;;7.50;99.90;;;;;;4993412;28;20383;-66
2023/02/05 12:09:12;;;;;;;;;;;7.40;99.90;;;;;;5004647;28;19976;-66
2023/02/05 12:17:38;;;;;;;;;;;7.60;99.90;;;;;;5003616;28;19936;-66
2023/02/05 12:20:20;;;;;;;;;;;7.60;99.90;;;;;;4994358;28;20137;-66
2023/02/05 12:23:00;;;;;;;;;;;7.60;99.90;;;;;;4995075;28;20008;-66
2023/02/05 12:25:44;;;;;;;;;;;7.60;99.90;;;;;;4993636;28;19914;-67
2023/02/05 12:28:25;;;;;;;;;;;7.70;99.90;;;;;;4997651;28;19921;-66
2023/02/05 12:30:58;;;;;;;;;;;7.80;99.90;;;;;;4994518;28;20284;-66
2023/02/05 12:37:01;;;;;;;;;;;7.70;99.90;;;;;;4992697;28;19967;-67
2023/02/05 12:39:29;;;;;;;;;;;7.80;99.90;;;;;;4994556;28;19922;-66
2023/02/05 12:42:04;;;;;;;;;;;8.00;99.90;;;;;;4998675;28;19914;-67
2023/02/05 12:44:49;;;;;;;;;;;8.00;99.90;;;;;;4991699;28;19932;-66
2023/02/05 12:47:15;;;;;;;;;;;8.00;99.90;;;;;;4990524;28;20661;-69
2023/02/05 12:49:48;;;;;;;;;;;8.00;99.90;;;;;;4974759;28;19917;-68
2023/02/05 12:52:34;;;;;;;;;;;8.10;99.90;;;;;;4981452;28;19918;-67
2023/02/05 12:55:05;;;;;;;;;;;8.10;99.90;;;;;;4990929;28;19920;-67
2023/02/05 12:57:38;;;;;;;;;;;8.00;99.90;;;;;;4996628;28;19922;-68
2023/02/05 13:00:23;;;;;;;;;;;7.90;99.90;;;;;;4994790;28;20040;-67
2023/02/05 13:05:40;;;;;;;;;;;7.80;99.90;;;;;;4994797;28;19972;-67
2023/02/05 13:11:34;;;;;;;;;;;7.80;99.90;;;;;;4971121;28;19933;-67
2023/02/05 13:14:21;;;;;;;;;;;7.90;99.90;;;;;;4980350;28;19933;-67
2023/02/05 13:16:53;;;;;;;;;;;7.90;99.90;;;;;;4994396;28;19974;-67
2023/02/05 13:19:24;;;;;;;;;;;7.90;99.90;;;;;;4985722;28;20399;-67
2023/02/05 13:30:49;;;;;;;;;;;7.70;99.90;;;;;;4994386;28;19917;-69
2023/02/05 13:33:15;;;;;;;;;;;7.70;99.90;;;;;;4994427;28;20008;-68
2023/02/05 13:35:49;;;;;;;;;;;7.80;99.90;;;;;;4992901;28;19968;-67
2023/02/05 13:41:41;;;;;;;;;;;7.90;99.90;;;;;;4998807;28;19925;-69
2023/02/05 13:47:29;;;;;;;;;;;7.80;99.90;;;;;;4990125;28;19924;-68
2023/02/05 13:50:13;;;;;;;;;;;7.80;99.90;;;;;;4992396;28;20019;-68
2023/02/05 13:56:00;;;;;;;;;;;7.80;99.90;;;;;;4993938;28;19921;-68
2023/02/05 13:58:33;;;;;;;;;;;7.80;99.90;;;;;;4996805;28;20324;-68
2023/02/05 14:07:07;;;;;;;;;;;7.80;99.90;;;;;;4992322;28;20008;-68
2023/02/05 14:10:04;;;;;;;;;;;7.90;99.90;;;;;;5002073;28;19914;-68
2023/02/05 14:15:39;;;;;;;;;;;7.80;99.80;;;;;;4994022;28;19968;-67
2023/02/05 14:18:04;;;;;;;;;;;7.70;99.90;;;;;;4976934;28;19937;-67
2023/02/05 14:23:45;;;;;;;;;;;7.80;99.90;;;;;;4993290;28;19921;-67
2023/02/05 14:32:36;;;;;;;;;;;7.60;99.90;;;;;;4972756;28;20402;-67
2023/02/05 14:35:02;;;;;;;;;;;7.60;99.90;;;;;;4992341;28;19914;-67
2023/02/05 14:37:48;;;;;;;;;;;7.50;99.90;;;;;;4993100;28;20012;-67
2023/02/05 14:40:17;;;;;;;;;;;7.40;99.90;;;;;;4990948;28;19977;-68
2023/02/05 14:54:43;;;;;;;;;;;7.50;99.90;;;;;;4973970;28;20005;-68
2023/02/05 14:57:28;;;;;;;;;;;7.50;99.90;;;;;;4973288;28;19910;-68
2023/02/05 15:06:18;;;;;;;;;;;7.30;99.90;;;;;;4973845;28;19941;-70
2023/02/05 15:11:50;;;;;;;;;;;7.30;99.90;;;;;;4994083;28;19986;-67
2023/02/05 15:14:18;;;;;;;;;;;7.20;99.90;;;;;;4998480;28;19921;-67
2023/02/05 15:23:00;;;;;;;;;;;6.90;99.90;;;;;;4993239;28;20335;-67
2023/02/05 15:25:28;;;;;;;;;;;6.80;99.90;;;;;;4992641;28;19933;-67
2023/02/05 15:28:13;;;;;;;;;;;6.80;99.90;;;;;;4992836;28;19914;-67
2023/02/05 15:30:45;;;;;;;;;;;6.70;99.90;;;;;;4989750;28;19909;-67
2023/02/05 15:48:15;;;;;;;;;;;6.50;99.90;;;;;;5002348;28;20473;-64
2023/02/05 15:56:49;;;;;;;;;;;6.40;99.90;;;;;;4997702;28;19924;-71
2023/02/05 15:59:18;;;;;;;;;;;6.40;99.90;;;;;;5000860;28;19917;-66
2023/02/05 16:05:02;;;;;;;;;;;6.30;99.90;;;;;;4994158;28;19921;-67
2023/02/05 16:07:30;;;;;;;;;;;6.20;99.90;;;;;;5008114;28;19918;-67
2023/02/05 16:12:59;;;;;;;;;;;6.20;99.90;;;;;;4989986;28;20023;-64
2023/02/05 16:15:28;;;;;;;;;;;6.20;99.90;;;;;;4993686;28;19917;-62
2023/02/05 16:17:58;;;;;;;;;;;6.10;99.90;;;;;;4991300;28;19952;-66
2023/02/05 16:20:36;;;;;;;;;;;6.20;99.90;;;;;;4995601;28;19922;-67
2023/02/05 16:23:14;;;;;;;;;;;6.20;99.90;;;;;;4997846;28;19921;-67
2023/02/05 16:25:41;;;;;;;;;;;6.10;99.90;;;;;;4992399;28;20671;-67
2023/02/05 16:28:14;;;;;;;;;;;6.00;99.90;;;;;;4996008;28;19914;-62
2023/02/05 16:30:42;;;;;;;;;;;6.00;99.90;;;;;;4992057;28;20009;-67
2023/02/05 16:33:25;;;;;;;;;;;6.00;99.90;;;;;;4993433;28;19921;-66
2023/02/05 16:35:51;;;;;;;;;;;6.00;99.90;;;;;;4980345;28;19961;-66
2023/02/05 16:38:19;;;;;;;;;;;5.90;99.90;;;;;;4996294;28;19965;-66
2023/02/05 16:40:46;;;;;;;;;;;5.90;99.90;;;;;;4994522;28;19910;-65
2023/02/05 16:43:24;;;;;;;;;;;5.80;99.90;;;;;;4996293;28;19992;-66
2023/02/05 16:46:05;;;;;;;;;;;5.80;99.90;;;;;;4997951;28;20384;-62
2023/02/05 16:48:32;;;;;;;;;;;5.80;99.90;;;;;;4992788;28;19932;-64
2023/02/05 16:50:58;;;;;;;;;;;5.80;99.90;;;;;;4995671;28;20008;-61
2023/02/05 16:53:25;;;;;;;;;;;5.90;99.90;;;;;;4982116;28;19957;-65
2023/02/05 16:55:57;;;;;;;;;;;5.80;99.90;;;;;;4994513;28;20354;-66
2023/02/05 16:58:24;;;;;;;;;;;5.80;99.90;;;;;;4995009;28;20371;-64